Pagrindinis puslapis
METAR-TAF:

METAR-TAF

Oro uostai :

Patna, Indija

platuma: 25-36N, ilguma: 085-06E, Aukštis: 51 m

Dabartinis oras

Ataskaita buvo paskelbta 16 minutes, ne 16:30 UTC
Ramus vėjas
Temperatūra 17°C
Drėgmė 94%
Slėgis 1018 hPa
Matomumas: 2500 m
Mažai debesys ne aukštis 2000 ft
Išsisklaidę debesys ne aukštis 10000 ft
rūkana

METAR: VEPT 071630Z 00000KT 2500 BR FEW020 SCT100 17/16 Q1018 NOSIG

Laikas: 22:16 (16:46 UTC)

Prognozė

Ataskaita buvo paskelbta 2 valandos ir 46 minutes, ne 14:00 UTC
Prognozė galioja nuo 07 metu 15 UTC su 07 metu 24 UTC
Vėjas kt iš Šiaurės
Matomumas: 2000 m
Mažai debesys ne aukštis 2000 ft
Išsisklaidę debesys ne aukštis 10000 ft
migla, rūkana
Tapsmas
nuo 07 metu 22 UTC su 07 metu 23 UTC
Matomumas: 1500 m
Išsisklaidę debesys ne aukštis 10000 ft
rūkana, Sekli rūkas

TAF: VEPT 071400Z 0715/0724 00000KT 2000 HZ BR FEW020 SCT100 BECMG 0722/0723 1500 BR MIFG SCT100

Orai ataskaitas ir orų prognozės (METAR, TAF).

turimą stotys yra geltonos ir raudonos taškus žemėlapyje.

Perkelti pele per norėdami pamatyti stoties vardą.

Tada spustelėkite, norėdami matyti oro stebėjimo ir prognozės.

Norėdami pakeisti žemėlapį: spustelėkite ant žalios mygtukų su juodo kryžiaus žemyn,; žalią mygtuką su brūkšneliu, jei norite nutolinti; arba žalių rodyklių gretimoms žemėlapius.


METAR-TAF: